This is the latest recevied weather packets stored in our database for station/object KD4WLE. If no packets are shown the sender has not sent any weather packets the latest 10 day(s).
| Time | Temp. | Humidity | Pressure | Rain* | Wind** | Luminosity | Snow |
|---|---|---|---|---|---|---|---|
| 1777991759 | 26.67° C | 62% | 1017.4 hPa | 0 mm | - | 591 W/m² | - |
| 1777991456 | 26.67° C | 60% | 1017.4 hPa | 0 mm | - | 200 W/m² | - |
| 1777991153 | 26.67° C | 61% | 1017.3 hPa | 0 mm | - | 572 W/m² | - |
| 1777990850 | 27.22° C | 62% | 1017.2 hPa | 0 mm | - | 530 W/m² | - |
| 1777990548 | 27.22° C | 60% | 1016.9 hPa | 0 mm | - | 513 W/m² | - |
| 1777989941 | 26.67° C | 62% | 1017.2 hPa | 0 mm | - | 487 W/m² | - |
| 1777989638 | 26.67° C | 62% | 1017.2 hPa | 0 mm | - | 472 W/m² | - |
| 1777989334 | 26.11° C | 66% | 1017.3 hPa | 0 mm | - | 454 W/m² | - |
| 1777989031 | 25.56° C | 67% | 1017.4 hPa | 0 mm | - | 434 W/m² | - |
| 1777988727 | 26.11° C | 67% | 1017.5 hPa | 0 mm | - | 419 W/m² | - |
| 1777988424 | 26.11° C | 69% | 1017.2 hPa | 0 mm | - | 422 W/m² | - |
| 1777988121 | 25.56° C | 70% | 1017.4 hPa | 0 mm | - | 405 W/m² | - |
| 1777987817 | 25° C | 73% | 1017.1 hPa | 0 mm | - | 417 W/m² | - |
| 1777987514 | 24.44° C | 74% | 1017.3 hPa | 0 mm | - | 348 W/m² | - |
| 1777987212 | 25° C | 74% | 1017.1 hPa | 0 mm | - | 202 W/m² | - |
| 1777986908 | 25° C | 75% | 1017 hPa | 0 mm | - | 251 W/m² | - |
| 1777986606 | 24.44° C | 76% | 1017.1 hPa | 0 mm | - | 245 W/m² | - |
| 1777986303 | 24.44° C | 76% | 1016.9 hPa | 0 mm | - | 188 W/m² | - |
| 1777986001 | 23.89° C | 79% | 1016.9 hPa | 0 mm | - | 307 W/m² | - |
| 1777985698 | 23.89° C | 80% | 1017.1 hPa | 0 mm | - | 121 W/m² | - |
| 1777985395 | 24.44° C | 78% | 1016.9 hPa | 0 mm | - | 150 W/m² | - |
| 1777985091 | 25° C | 78% | 1016.8 hPa | 0 mm | - | 177 W/m² | - |
| 1777984787 | 25° C | 79% | 1017.1 hPa | 0 mm | - | 215 W/m² | - |
| 1777984484 | 24.44° C | 80% | 1016.7 hPa | 0 mm | - | 198 W/m² | - |
| 1777984180 | 23.89° C | 81% | 1016.9 hPa | 0 mm | - | 183 W/m² | - |
* Rain latest hour (hover to see other rain measurements)
** Current wind speed in m/s (hover to see current wind gust speed)